EKVG

Vagar

Airport
ICAO code
EKVG
Summary
ICAO Region
EUR
ICAO Territory
Location

Sørvágur, Faroe Islands,

Coordinates
62° 3' 49" N , 7° 16' 37" W
KCC
Airport WX
Volcanic Ash
Metar
Observation
EKVG 261750Z AUTO 31028G41KT 2900 -RA OVC010/// 04/03 Q0996 RERA RMK OVC016/// WIND SKEID 31037G53KT
Station
Soervaag / Vagar
Date/Time
2022-09-26 17:50:00
Wind direction
310°
Wind speed
28 kts
Lowest cloud amount
overcast
Temperature
4°C
Dew point
3°C
Humidity
93%
QNH
996 hPa
Weather condition
n/a

Description

Vágar Airport is the only airport in the Faroe Islands, a self-governing territory of Denmark and is located 1 nm east of Sørvágur.

Climatology

Subarctic oceanic climate (Köppen climate classification Cfc) moderated by North Atlantic Current; long, mild, windy winters; short, cool summers.

Runways

Designator Length Width Surface Rops
13/31 1799 30 ASP No/No

Airport map

Aerial View

SKYbrary Partners:

Safety knowledge contributed by: